createdAt,value
2022-11-21T00:01:17.910Z,95849.56
2022-11-21T00:03:45.946Z,95850.53
2022-11-21T00:06:14.135Z,95858.38
2022-11-21T00:08:42.474Z,95844.34
2022-11-21T00:11:10.474Z,95845.09
2022-11-21T00:13:38.407Z,95835.56
2022-11-21T00:16:09.561Z,95833.78
2022-11-21T00:18:37.727Z,95838.59
2022-11-21T00:21:06.908Z,95831.97
2022-11-21T00:23:35.129Z,95829.25
2022-11-21T00:26:06.290Z,95827.16
2022-11-21T00:28:35.050Z,95815.97
2022-11-21T00:31:03.292Z,95808.56
2022-11-21T00:33:33.022Z,95797.75
2022-11-21T00:36:07.680Z,95808.03
2022-11-21T00:38:35.972Z,95796.72
2022-11-21T00:41:03.936Z,95797.75
2022-11-21T00:43:31.984Z,95803.19
2022-11-21T00:46:02.548Z,95802.25
2022-11-21T00:48:32.581Z,95796.78
2022-11-21T00:51:01.528Z,95793.31
2022-11-21T00:53:29.810Z,95789.56
2022-11-21T00:55:57.897Z,95784.97
2022-11-21T00:58:25.978Z,95785.69
2022-11-21T01:00:54.410Z,95792.72
2022-11-21T01:03:22.342Z,95795.00
2022-11-21T01:05:51.621Z,95792.47
2022-11-21T01:08:19.599Z,95804.50
2022-11-21T01:10:47.509Z,95799.19
2022-11-21T01:13:15.523Z,95790.81
2022-11-21T01:15:43.467Z,95797.50
2022-11-21T01:18:11.411Z,95807.13
2022-11-21T01:20:40.961Z,95805.47
2022-11-21T01:23:10.393Z,95806.81
2022-11-21T01:25:38.686Z,95800.41
2022-11-21T01:28:06.764Z,95800.09
2022-11-21T01:30:34.678Z,95793.00
2022-11-21T01:33:02.555Z,95789.47
2022-11-21T01:35:30.455Z,95789.16
2022-11-21T01:37:58.301Z,95783.06
2022-11-21T01:40:27.626Z,95781.84
2022-11-21T01:42:59.559Z,95787.81
2022-11-21T01:45:54.098Z,95785.22
2022-11-21T01:48:26.634Z,95780.81
2022-11-21T01:50:55.671Z,95772.88
2022-11-21T01:53:24.302Z,95770.97
2022-11-21T01:55:54.760Z,95774.31
2022-11-21T01:58:24.543Z,95777.88
2022-11-21T02:00:52.683Z,95781.41
2022-11-21T02:03:23.852Z,95778.63
2022-11-21T02:05:55.903Z,95772.44
2022-11-21T02:08:26.883Z,95783.72
2022-11-21T02:11:05.806Z,95782.28
2022-11-21T02:13:33.808Z,95773.06
2022-11-21T02:16:01.906Z,95773.41
2022-11-21T02:18:30.028Z,95769.72
2022-11-21T02:21:06.024Z,95766.91
2022-11-21T02:23:41.511Z,95771.63
2022-11-21T02:26:12.132Z,95773.19
2022-11-21T02:28:40.070Z,95758.63
2022-11-21T02:31:08.104Z,95763.69
2022-11-21T02:33:36.359Z,95758.44
2022-11-21T02:36:05.401Z,95762.72
2022-11-21T02:38:36.423Z,95757.81
2022-11-21T02:41:11.621Z,95754.34
2022-11-21T02:43:46.504Z,95753.41
2022-11-21T02:46:14.541Z,95749.00
2022-11-21T02:48:42.752Z,95739.41
2022-11-21T02:51:10.806Z,95750.25
2022-11-21T02:53:38.773Z,95736.06
2022-11-21T02:56:06.924Z,95744.00
2022-11-21T02:58:35.408Z,95732.69
2022-11-21T03:01:04.904Z,95726.94
2022-11-21T03:03:32.893Z,95718.28
2022-11-21T03:06:00.944Z,95722.47
2022-11-21T03:08:28.974Z,95729.03
2022-11-21T03:10:56.928Z,95724.84
2022-11-21T03:13:24.883Z,95715.44
2022-11-21T03:15:55.444Z,95711.78
2022-11-21T03:18:24.926Z,95698.19
2022-11-21T03:20:52.980Z,95698.38
2022-11-21T03:23:20.946Z,95689.63
2022-11-21T03:25:48.956Z,95686.38
2022-11-21T03:28:16.982Z,95686.50
2022-11-21T03:30:45.104Z,95698.09
2022-11-21T03:33:13.371Z,95694.41
2022-11-21T03:35:42.671Z,95687.72
2022-11-21T03:38:10.655Z,95690.88
2022-11-21T03:40:38.602Z,95697.78
2022-11-21T03:43:07.951Z,95695.16
2022-11-21T03:45:35.990Z,95689.63
2022-11-21T03:48:04.035Z,95698.19
2022-11-21T03:50:32.144Z,95687.09
2022-11-21T03:53:01.587Z,95683.75
2022-11-21T03:55:29.624Z,95690.66
2022-11-21T03:57:57.527Z,95687.75
2022-11-21T04:00:25.583Z,95688.06
2022-11-21T04:02:53.563Z,95688.56
2022-11-21T04:05:21.550Z,95686.78
2022-11-21T04:07:49.425Z,95681.69
2022-11-21T04:10:20.895Z,95680.50
2022-11-21T04:12:48.809Z,95682.06
2022-11-21T04:15:16.851Z,95682.81
2022-11-21T04:17:44.696Z,95688.03
2022-11-21T04:20:12.938Z,95690.66
2022-11-21T04:22:40.882Z,95694.84
2022-11-21T04:25:09.234Z,95689.28
2022-11-21T04:27:38.528Z,95690.97
2022-11-21T04:30:07.633Z,95683.88
2022-11-21T04:32:35.670Z,95687.41
2022-11-21T04:35:03.706Z,95696.94
2022-11-21T04:37:31.768Z,95696.63
2022-11-21T04:39:59.739Z,95692.00
2022-11-21T04:42:27.855Z,95695.69
2022-11-21T04:44:57.293Z,95697.13
2022-11-21T04:47:25.283Z,95697.97
2022-11-21T04:49:53.277Z,95694.41
2022-11-21T04:52:21.272Z,95692.53
2022-11-21T04:54:49.240Z,95694.22
2022-11-21T04:57:17.189Z,95696.59
2022-11-21T04:59:45.261Z,95688.03
2022-11-21T05:02:14.607Z,95702.88
2022-11-21T05:04:42.671Z,95693.97
2022-11-21T05:07:10.614Z,95691.28
2022-11-21T05:09:38.627Z,95697.44
2022-11-21T05:12:24.479Z,95701.75
2022-11-21T05:14:52.450Z,95712.28
2022-11-21T05:17:21.786Z,95697.56
2022-11-21T05:19:49.840Z,95699.00
2022-11-21T05:22:17.778Z,95703.50
2022-11-21T05:24:45.731Z,95700.69
2022-11-21T05:27:13.594Z,95701.09
2022-11-21T05:29:41.635Z,95705.09
2022-11-21T05:32:09.779Z,95696.06
2022-11-21T05:34:39.242Z,95690.72
2022-11-21T05:37:07.205Z,95700.78
2022-11-21T05:39:35.183Z,95706.72
2022-11-21T05:42:03.502Z,95699.81
2022-11-21T05:44:30.855Z,95701.72
2022-11-21T05:46:58.988Z,95708.81
2022-11-21T05:49:27.024Z,95718.34
2022-11-21T05:51:56.356Z,95705.38
2022-11-21T05:54:24.396Z,95708.63
2022-11-21T05:56:52.346Z,95714.78
2022-11-21T05:59:20.329Z,95714.78
2022-11-21T06:02:05.813Z,95697.53
2022-11-21T06:04:33.733Z,95704.63
2022-11-21T06:07:03.102Z,95698.59
2022-11-21T06:09:31.157Z,95700.25
2022-11-21T06:11:59.110Z,95696.56
2022-11-21T06:14:27.424Z,95697.84
2022-11-21T06:16:55.564Z,95696.78
2022-11-21T06:19:23.528Z,95701.41
2022-11-21T06:21:51.470Z,95702.34
2022-11-21T06:24:22.373Z,95698.81
2022-11-21T06:26:50.861Z,95700.69
2022-11-21T06:29:22.179Z,95705.59
2022-11-21T06:31:50.823Z,95707.16
2022-11-21T06:34:19.019Z,95702.38
2022-11-21T06:36:46.960Z,95705.91
2022-11-21T06:39:14.886Z,95701.72
2022-11-21T06:41:51.026Z,95702.19
2022-11-21T06:44:19.650Z,95710.22
2022-11-21T06:46:51.137Z,95707.81
2022-11-21T06:49:19.575Z,95707.81
2022-11-21T06:51:47.866Z,95711.56
2022-11-21T06:54:17.098Z,95716.69
2022-11-21T06:56:46.591Z,95718.28
2022-11-21T06:59:14.556Z,95720.34
2022-11-21T07:01:42.636Z,95726.00
2022-11-21T07:04:10.635Z,95730.28
2022-11-21T07:06:38.613Z,95727.13
2022-11-21T07:12:16.018Z,95727.66
2022-11-21T07:14:43.055Z,95732.88
2022-11-21T07:17:12.563Z,95732.25
2022-11-21T07:19:41.074Z,95726.91
2022-11-21T07:22:09.589Z,95727.66
2022-11-21T07:24:37.735Z,95729.84
2022-11-21T07:27:07.051Z,95729.66
2022-11-21T07:29:35.033Z,95719.94
2022-11-21T07:32:03.054Z,95723.47
2022-11-21T07:34:30.922Z,95719.94
2022-11-21T07:36:58.997Z,95717.44
2022-11-21T07:39:27.182Z,95710.09
2022-11-21T07:41:55.325Z,95715.03
2022-11-21T07:44:24.726Z,95717.53
2022-11-21T07:46:55.706Z,95713.16
2022-11-21T07:49:23.853Z,95718.28
2022-11-21T07:51:52.025Z,95724.94
2022-11-21T07:54:20.203Z,95713.03
2022-11-21T07:56:48.359Z,95717.22
2022-11-21T07:59:16.534Z,95719.63
2022-11-21T08:01:46.399Z,95722.13
2022-11-21T08:04:14.503Z,95723.59
2022-11-21T08:06:42.690Z,95722.47
2022-11-21T08:09:10.849Z,95725.59
2022-11-21T08:11:39.081Z,95723.72
2022-11-21T08:14:08.767Z,95722.34
2022-11-21T08:16:36.974Z,95714.78
2022-11-21T08:19:06.742Z,95707.91
2022-11-21T08:21:34.766Z,95705.88
2022-11-21T08:24:03.020Z,95703.91
2022-11-21T08:26:31.032Z,95698.94
2022-11-21T08:29:00.190Z,95712.03
2022-11-21T08:31:28.304Z,95716.34
2022-11-21T08:33:57.448Z,95710.25
2022-11-21T08:36:26.876Z,95710.88
2022-11-21T08:38:54.924Z,95702.81
2022-11-21T08:41:40.706Z,95703.63
2022-11-21T08:44:13.791Z,95704.38
2022-11-21T08:46:42.101Z,95701.44
2022-11-21T08:49:10.310Z,95691.81
2022-11-21T08:51:39.708Z,95699.44
2022-11-21T08:54:09.529Z,95698.97
2022-11-21T08:56:37.476Z,95691.84
2022-11-21T08:59:05.545Z,95692.25
2022-11-21T09:01:33.508Z,95685.03
2022-11-21T09:04:01.515Z,95693.63
2022-11-21T09:06:29.509Z,95688.88
2022-11-21T09:08:59.123Z,95685.06
2022-11-21T09:11:27.344Z,95678.81
2022-11-21T09:14:12.906Z,95683.69
2022-11-21T09:17:02.090Z,95670.72
2022-11-21T09:19:30.629Z,95670.97
2022-11-21T09:21:58.825Z,95671.84
2022-11-21T09:24:28.260Z,95682.81
2022-11-21T09:26:56.376Z,95682.94
2022-11-21T09:29:24.291Z,95684.41
2022-11-21T09:31:52.215Z,95683.53
2022-11-21T09:34:20.622Z,95686.69
2022-11-21T09:36:48.604Z,95687.03
2022-11-21T09:39:17.470Z,95682.31
2022-11-21T09:42:00.471Z,95683.63
2022-11-21T09:44:43.687Z,95669.13
2022-11-21T09:47:22.751Z,95661.88
2022-11-21T09:49:57.571Z,95663.53
2022-11-21T09:52:33.221Z,95661.88
2022-11-21T09:55:06.065Z,95653.75
2022-11-21T09:57:36.843Z,95645.91
2022-11-21T10:00:15.293Z,95645.66
2022-11-21T10:02:43.370Z,95637.53
2022-11-21T10:05:15.569Z,95636.84
2022-11-21T10:07:44.533Z,95623.50
2022-11-21T10:10:23.594Z,95623.16
2022-11-21T10:13:07.411Z,95612.41
2022-11-21T10:15:51.724Z,95615.66
2022-11-21T10:18:58.775Z,95609.53
2022-11-21T10:21:42.206Z,95606.47
2022-11-21T10:24:27.067Z,95598.47
2022-11-21T10:26:59.192Z,95594.53
2022-11-21T10:29:32.961Z,95594.28
2022-11-21T10:32:04.898Z,95589.75
2022-11-21T10:34:38.886Z,95592.03
2022-11-21T10:37:14.214Z,95583.47
2022-11-21T10:39:46.439Z,95574.75
2022-11-21T10:42:31.967Z,95571.75
2022-11-21T10:45:18.520Z,95574.13
2022-11-21T10:47:48.367Z,95573.03
2022-11-21T10:50:30.949Z,95562.53
2022-11-21T10:53:27.710Z,95563.69
2022-11-21T10:56:09.113Z,95559.16
2022-11-21T10:58:43.626Z,95556.66
2022-11-21T11:01:28.146Z,95546.16
2022-11-21T11:04:28.255Z,95548.50
2022-11-21T11:07:00.392Z,95532.75
2022-11-21T11:09:31.701Z,95528.09
2022-11-21T11:12:23.940Z,95529.53
2022-11-21T11:14:54.407Z,95519.47
2022-11-21T11:17:33.011Z,95513.13
2022-11-21T11:20:02.878Z,95512.31
2022-11-21T11:22:32.347Z,95513.13
2022-11-21T11:25:04.931Z,95507.31
2022-11-21T11:27:33.253Z,95498.09
2022-11-21T11:30:08.409Z,95504.44
2022-11-21T11:32:43.072Z,95486.31
2022-11-21T11:35:23.587Z,95490.00
2022-11-21T11:38:02.243Z,95486.41
2022-11-21T11:40:36.007Z,95472.59
2022-11-21T11:43:43.330Z,95475.09
2022-11-21T11:46:38.018Z,95467.59
2022-11-21T11:49:20.397Z,95454.84
2022-11-21T11:51:54.658Z,95458.03
2022-11-21T11:54:28.476Z,95454.31
2022-11-21T11:56:58.867Z,95447.16
2022-11-21T11:59:30.944Z,95454.38
2022-11-21T12:02:08.926Z,95448.91
2022-11-21T12:04:47.802Z,95441.97
2022-11-21T12:10:18.516Z,95436.69
2022-11-21T12:12:51.302Z,95425.63
2022-11-21T12:15:41.067Z,95428.13
2022-11-21T12:18:17.501Z,95425.91
2022-11-21T12:21:00.307Z,95416.34
2022-11-21T12:23:32.861Z,95402.13
2022-11-21T12:26:14.295Z,95388.44
2022-11-21T12:28:52.997Z,95382.78
2022-11-21T12:31:28.575Z,95382.25
2022-11-21T12:34:06.619Z,95377.59
2022-11-21T12:36:45.226Z,95374.69
2022-11-21T12:39:29.512Z,95368.22
2022-11-21T12:42:34.931Z,95358.53
2022-11-21T12:45:27.241Z,95346.94
2022-11-21T12:48:30.044Z,95340.16
2022-11-21T12:51:47.689Z,95338.75
2022-11-21T12:54:33.542Z,95330.75
2022-11-21T12:57:11.415Z,95330.63
2022-11-21T12:59:49.707Z,95320.78
2022-11-21T13:02:31.168Z,95307.66
2022-11-21T13:05:00.906Z,95307.41
2022-11-21T13:07:31.600Z,95309.63
2022-11-21T13:10:03.995Z,95303.72
2022-11-21T13:12:39.577Z,95306.06
2022-11-21T13:15:22.849Z,95300.69
2022-11-21T13:17:57.207Z,95292.91
2022-11-21T13:20:30.470Z,95294.19
2022-11-21T13:22:59.951Z,95293.06
2022-11-21T13:25:41.171Z,95293.91
2022-11-21T13:28:32.085Z,95290.06
2022-11-21T13:31:02.276Z,95275.09
2022-11-21T13:33:48.565Z,95271.78
2022-11-21T13:36:39.045Z,95269.44
2022-11-21T13:39:28.755Z,95260.03
2022-11-21T13:42:39.432Z,95245.59
2022-11-21T13:45:40.353Z,95251.00
2022-11-21T13:48:55.275Z,95257.34
2022-11-21T13:51:54.709Z,95258.44
2022-11-21T13:54:59.058Z,95244.38
2022-11-21T13:57:41.233Z,95236.31
2022-11-21T14:00:26.308Z,95234.97
2022-11-21T14:03:28.894Z,95234.16
2022-11-21T14:06:14.793Z,95234.00
2022-11-21T14:08:43.807Z,95228.63
2022-11-21T14:11:23.386Z,95218.38
2022-11-21T14:13:52.777Z,95216.59
2022-11-21T14:16:29.483Z,95205.09
2022-11-21T14:18:58.858Z,95217.53
2022-11-21T14:21:28.751Z,95205.38
2022-11-21T14:23:59.127Z,95204.69
2022-11-21T14:26:29.595Z,95209.94
2022-11-21T14:29:17.776Z,95212.56
2022-11-21T14:31:47.523Z,95199.81
2022-11-21T14:34:25.677Z,95193.75
2022-11-21T14:36:55.097Z,95192.06
2022-11-21T14:39:37.316Z,95181.84
2022-11-21T14:42:08.153Z,95174.25
2022-11-21T14:44:37.654Z,95173.81
2022-11-21T14:47:13.866Z,95170.50
2022-11-21T14:49:50.889Z,95163.56
2022-11-21T14:52:22.403Z,95152.94
2022-11-21T14:55:27.965Z,95145.88
2022-11-21T14:57:43.976Z,95132.34
2022-11-21T15:00:43.252Z,95126.38
2022-11-21T15:03:06.033Z,95130.41
2022-11-21T15:08:55.850Z,95108.28
2022-11-21T15:11:14.264Z,95100.69
2022-11-21T15:14:12.263Z,95086.88
2022-11-21T15:16:34.304Z,95074.00
2022-11-21T15:19:02.369Z,95075.38
2022-11-21T15:21:30.950Z,95061.56
2022-11-21T15:23:59.064Z,95062.66
2022-11-21T15:26:31.417Z,95045.25
2022-11-21T15:29:01.295Z,95052.28
2022-11-21T15:31:29.726Z,95039.03
2022-11-21T15:34:27.686Z,95030.47
2022-11-21T15:37:04.608Z,95017.63
2022-11-21T15:39:34.467Z,95010.16
2022-11-21T15:42:36.947Z,95003.63
2022-11-21T15:45:22.568Z,95001.16
2022-11-21T15:47:50.704Z,94991.59
2022-11-21T15:50:20.102Z,94988.84
2022-11-21T15:52:49.670Z,94976.69
2022-11-21T15:55:21.302Z,94974.44
2022-11-21T15:57:49.298Z,94971.16
2022-11-21T16:00:18.665Z,94972.38
2022-11-21T16:02:47.416Z,94952.22
2022-11-21T16:05:16.626Z,94956.63
2022-11-21T16:07:46.014Z,94957.16
2022-11-21T16:10:22.624Z,94957.03
2022-11-21T16:17:45.991Z,94941.00
2022-11-21T16:20:15.741Z,94926.88
2022-11-21T16:22:47.727Z,94919.31
2022-11-21T16:25:16.801Z,94915.28
2022-11-21T16:27:48.168Z,94920.81
2022-11-21T16:30:16.826Z,94910.56
2022-11-21T16:32:45.513Z,94919.41
2022-11-21T16:35:13.821Z,94930.16
2022-11-21T16:37:42.329Z,94924.47
2022-11-21T16:40:12.997Z,94920.09
2022-11-21T16:42:41.309Z,94905.84
2022-11-21T16:45:10.450Z,94901.44
2022-11-21T16:47:40.309Z,94901.97
2022-11-21T16:50:10.396Z,94893.41
2022-11-21T16:52:39.458Z,94902.09
2022-11-21T16:55:08.337Z,94885.13
2022-11-21T16:57:38.108Z,94882.06
2022-11-21T17:00:07.530Z,94875.84
2022-11-21T17:02:38.309Z,94878.31
2022-11-21T17:05:07.625Z,94873.34
2022-11-21T17:07:35.968Z,94856.66
2022-11-21T17:10:04.640Z,94858.03
2022-11-21T17:12:39.483Z,94867.94
2022-11-21T17:15:10.461Z,94869.84
2022-11-21T17:17:38.804Z,94879.63
2022-11-21T17:20:09.244Z,94882.22
2022-11-21T17:22:37.797Z,94862.34
2022-11-21T17:25:07.182Z,94842.81
2022-11-21T17:27:35.822Z,94829.16
2022-11-21T17:30:11.189Z,94823.66
2022-11-21T17:32:39.258Z,94829.41
2022-11-21T17:35:08.405Z,94837.28
2022-11-21T17:37:36.753Z,94839.47
2022-11-21T17:40:06.701Z,94844.16
2022-11-21T17:42:34.650Z,94831.66
2022-11-21T17:45:02.754Z,94833.56
2022-11-21T17:47:33.792Z,94813.03
2022-11-21T17:50:06.068Z,94813.75
2022-11-21T17:52:34.409Z,94800.94
2022-11-21T17:55:02.412Z,94801.63
2022-11-21T17:57:30.376Z,94798.19
2022-11-21T17:59:58.722Z,94794.91
2022-11-21T18:02:27.415Z,94807.28
2022-11-21T18:04:56.958Z,94796.13
2022-11-21T18:07:24.954Z,94796.81
2022-11-21T18:09:53.285Z,94793.91
2022-11-21T18:12:21.568Z,94798.91
2022-11-21T18:14:49.518Z,94797.25
2022-11-21T18:17:17.663Z,94799.84
2022-11-21T18:19:45.667Z,94800.44
2022-11-21T18:22:15.036Z,94802.91
2022-11-21T18:24:43.355Z,94804.69
2022-11-21T18:27:11.620Z,94797.41
2022-11-21T18:29:39.628Z,94805.41
2022-11-21T18:32:07.627Z,94793.13
2022-11-21T18:34:35.593Z,94800.69
2022-11-21T18:37:03.602Z,94792.03
2022-11-21T18:39:33.314Z,94795.47
2022-11-21T18:42:01.463Z,94792.59
2022-11-21T18:44:29.390Z,94790.38
2022-11-21T18:46:57.349Z,94794.78
2022-11-21T18:49:25.852Z,94778.09
2022-11-21T18:51:54.046Z,94772.75
2022-11-21T18:54:22.102Z,94770.94
2022-11-21T18:56:51.630Z,94769.16
2022-11-21T18:59:20.118Z,94764.63
2022-11-21T19:01:48.285Z,94749.47
2022-11-21T19:04:16.470Z,94762.69
2022-11-21T19:06:44.529Z,94759.09
2022-11-21T19:09:12.696Z,94760.34
2022-11-21T19:11:40.847Z,94755.13
2022-11-21T19:14:10.276Z,94756.75
2022-11-21T19:16:38.410Z,94746.69
2022-11-21T19:21:55.516Z,94735.28
2022-11-21T19:24:23.522Z,94733.47
2022-11-21T19:26:51.441Z,94734.00
2022-11-21T19:29:20.826Z,94733.31
2022-11-21T19:31:48.730Z,94733.19
2022-11-21T19:34:17.452Z,94721.91
2022-11-21T19:36:46.207Z,94728.78
2022-11-21T19:39:14.150Z,94725.91
2022-11-21T19:41:42.459Z,94730.16
2022-11-21T19:44:11.532Z,94737.91
2022-11-21T19:46:41.342Z,94734.59
2022-11-21T19:49:12.084Z,94735.53
2022-11-21T19:51:42.860Z,94738.72
2022-11-21T19:54:13.138Z,94738.72
2022-11-21T19:56:41.440Z,94736.22
2022-11-21T19:59:12.428Z,94743.97
2022-11-21T20:01:42.215Z,94748.09
2022-11-21T20:04:12.452Z,94744.09
2022-11-21T20:06:42.521Z,94753.63
2022-11-21T20:09:12.648Z,94753.34
2022-11-21T20:11:41.905Z,94750.72
2022-11-21T20:14:10.563Z,94746.03
2022-11-21T20:16:43.165Z,94745.88
2022-11-21T20:19:14.610Z,94748.50
2022-11-21T20:21:43.625Z,94740.66
2022-11-21T20:24:12.294Z,94738.72
2022-11-21T20:26:40.513Z,94728.66
2022-11-21T20:29:08.602Z,94743.53
2022-11-21T20:31:38.339Z,94742.16
2022-11-21T20:34:12.614Z,94740.50
2022-11-21T20:36:40.978Z,94736.22
2022-11-21T20:39:14.168Z,94731.97
2022-11-21T20:41:42.480Z,94730.72
2022-11-21T20:45:07.267Z,94730.84
2022-11-21T20:47:03.157Z,94727.00
2022-11-21T20:49:32.889Z,94731.53
2022-11-21T20:54:49.375Z,94722.19
2022-11-21T20:57:17.395Z,94718.88
2022-11-21T20:59:45.420Z,94722.31
2022-11-21T21:02:14.298Z,94722.44
2022-11-21T21:04:43.921Z,94720.78
2022-11-21T21:07:12.003Z,94718.03
2022-11-21T21:09:40.479Z,94726.56
2022-11-21T21:12:08.671Z,94720.38
2022-11-21T21:14:36.605Z,94714.56
2022-11-21T21:17:04.586Z,94717.19
2022-11-21T21:19:32.748Z,94720.38
2022-11-21T21:22:02.192Z,94709.06
2022-11-21T21:24:30.283Z,94715.00
2022-11-21T21:26:59.122Z,94722.19
2022-11-21T21:29:27.388Z,94718.59
2022-11-21T21:31:55.570Z,94709.22
2022-11-21T21:34:24.680Z,94713.50
2022-11-21T21:36:52.576Z,94703.69
2022-11-21T21:39:21.901Z,94709.50
2022-11-21T21:41:50.333Z,94700.81
2022-11-21T21:44:18.246Z,94706.75
2022-11-21T21:46:46.177Z,94704.94
2022-11-21T21:49:14.371Z,94708.66
2022-11-21T21:51:42.570Z,94705.06
2022-11-21T21:54:19.673Z,94701.75
2022-11-21T21:56:49.499Z,94706.59
2022-11-21T21:59:18.387Z,94708.50
2022-11-21T22:01:46.675Z,94710.03
2022-11-21T22:04:14.792Z,94707.28
2022-11-21T22:06:43.266Z,94716.66
2022-11-21T22:09:11.460Z,94721.75
2022-11-21T22:11:39.949Z,94720.38
2022-11-21T22:14:13.378Z,94727.13
2022-11-21T22:16:41.776Z,94716.09
2022-11-21T22:19:10.150Z,94717.75
2022-11-21T22:21:39.078Z,94722.19
2022-11-21T22:24:28.490Z,94715.13
2022-11-21T22:26:56.773Z,94712.81
2022-11-21T22:29:26.428Z,94705.19
2022-11-21T22:31:54.395Z,94701.75
2022-11-21T22:34:22.785Z,94710.19
2022-11-21T22:36:50.953Z,94705.19
2022-11-21T22:39:18.890Z,94706.19
2022-11-21T22:41:46.856Z,94708.09
2022-11-21T22:44:14.837Z,94708.09
2022-11-21T22:46:44.190Z,94704.66
2022-11-21T22:49:12.125Z,94702.03
2022-11-21T22:51:40.027Z,94699.00
2022-11-21T22:54:08.122Z,94700.81
2022-11-21T22:56:36.296Z,94698.03
2022-11-21T22:59:04.498Z,94697.50
2022-11-21T23:01:34.349Z,94692.09
2022-11-21T23:04:04.117Z,94687.03
2022-11-21T23:06:32.183Z,94681.50
2022-11-21T23:09:00.114Z,94679.00
2022-11-21T23:11:29.688Z,94655.59
2022-11-21T23:13:58.643Z,94642.22
2022-11-21T23:16:27.080Z,94631.84
2022-11-21T23:18:56.852Z,94623.06
2022-11-21T23:21:26.296Z,94640.56
2022-11-21T23:23:54.345Z,94650.88
2022-11-21T23:26:22.334Z,94657.22
2022-11-21T23:28:50.585Z,94652.13
2022-11-21T23:31:18.585Z,94653.22
2022-11-21T23:33:46.536Z,94654.34
2022-11-21T23:36:14.591Z,94654.34
2022-11-21T23:38:43.905Z,94659.44
2022-11-21T23:41:11.861Z,94657.22
2022-11-21T23:43:39.770Z,94656.28
2022-11-21T23:46:07.787Z,94663.16
2022-11-21T23:48:36.806Z,94655.19
2022-11-21T23:51:04.887Z,94663.97
2022-11-21T23:53:32.907Z,94660.41
2022-11-21T23:56:02.234Z,94672.53
2022-11-21T23:58:30.195Z,94660.25
